createdAt,value
2023-04-14T00:01:37.190Z,27.88
2023-04-14T00:06:39.289Z,15.73
2023-04-14T00:11:41.665Z,19.65
2023-04-14T00:16:46.260Z,8.25
2023-04-14T00:21:48.509Z,16.55
2023-04-14T00:26:50.690Z,16.55
2023-04-14T00:31:53.144Z,14.70
2023-04-14T00:36:55.210Z,15.85
2023-04-14T00:41:57.394Z,25.20
2023-04-14T00:47:01.815Z,16.13
2023-04-14T00:52:04.813Z,11.10
2023-04-14T00:57:08.086Z,20.58
2023-04-14T01:02:10.834Z,14.60
2023-04-14T01:07:13.105Z,20.65
2023-04-14T01:12:27.163Z,13.45
2023-04-14T01:17:32.487Z,6.97
2023-04-14T01:22:42.981Z,8.40
2023-04-14T01:28:03.182Z,9.30
2023-04-14T01:33:08.158Z,7.30
2023-04-14T01:38:19.274Z,12.90
2023-04-14T01:43:27.223Z,9.15
2023-04-14T01:48:30.776Z,7.20
2023-04-14T01:53:36.169Z,8.38
2023-04-14T01:58:39.682Z,5.40
2023-04-14T02:03:43.440Z,9.93
2023-04-14T02:08:46.747Z,10.52
2023-04-14T02:13:49.578Z,6.32
2023-04-14T02:18:51.875Z,4.30
2023-04-14T02:23:54.005Z,5.13
2023-04-14T02:29:07.660Z,14.70
2023-04-14T02:34:15.481Z,2.35
2023-04-14T02:39:23.478Z,1.65
2023-04-14T02:44:29.900Z,1.25
2023-04-14T02:49:42.123Z,1.58
2023-04-14T02:54:46.033Z,2.15
2023-04-14T02:59:49.943Z,0.90
2023-04-14T03:04:53.879Z,0.13
2023-04-14T03:10:06.239Z,0.57
2023-04-14T03:15:10.006Z,0.63
2023-04-14T03:20:14.276Z,0.00
2023-04-14T03:25:16.698Z,0.10
2023-04-14T03:30:25.925Z,3.10
2023-04-14T03:35:29.248Z,0.00
2023-04-14T03:40:33.305Z,0.00
2023-04-14T03:45:39.171Z,0.20
2023-04-14T03:50:45.761Z,0.75
2023-04-14T03:55:51.626Z,0.22
2023-04-14T04:00:55.422Z,0.00
2023-04-14T04:05:58.251Z,0.00
2023-04-14T04:11:05.768Z,0.00
2023-04-14T04:16:10.102Z,0.17
2023-04-14T04:21:14.618Z,0.03
2023-04-14T04:26:18.492Z,0.40
2023-04-14T04:31:24.002Z,4.07
2023-04-14T04:36:31.910Z,1.25
2023-04-14T04:41:34.419Z,0.85
2023-04-14T04:46:50.017Z,6.13
2023-04-14T04:51:53.130Z,10.82
2023-04-14T04:56:57.703Z,14.15
2023-04-14T05:01:59.930Z,21.90
2023-04-14T05:07:03.612Z,14.43
2023-04-14T05:12:05.933Z,19.40
2023-04-14T05:17:08.004Z,46.80
2023-04-14T05:22:10.421Z,55.50
2023-04-14T05:27:14.596Z,48.78
2023-04-14T05:32:17.108Z,60.45
2023-04-14T05:37:19.640Z,80.43
2023-04-14T05:42:21.885Z,68.20
2023-04-14T05:47:23.976Z,70.05
2023-04-14T05:52:26.457Z,45.60
2023-04-14T05:57:28.641Z,60.05
2023-04-14T06:02:30.912Z,66.65
2023-04-14T06:07:33.929Z,64.95
2023-04-14T06:12:37.688Z,56.75
2023-04-14T06:17:40.186Z,55.50
2023-04-14T06:22:43.355Z,74.85
2023-04-14T06:27:45.553Z,64.30
2023-04-14T06:32:48.721Z,34.78
2023-04-14T06:37:51.700Z,63.80
2023-04-14T06:42:53.856Z,29.92
2023-04-14T06:47:56.242Z,22.65
2023-04-14T06:52:58.417Z,21.90
2023-04-14T06:58:00.820Z,21.05
2023-04-14T07:03:03.071Z,27.70
2023-04-14T07:08:05.218Z,26.77
2023-04-14T07:13:07.391Z,26.90
2023-04-14T07:18:09.565Z,32.10
2023-04-14T07:23:11.774Z,18.83
2023-04-14T07:28:13.874Z,23.25
2023-04-14T07:33:18.839Z,36.33
2023-04-14T07:38:20.940Z,28.60
2023-04-14T07:43:23.957Z,31.17
2023-04-14T07:48:26.133Z,26.70
2023-04-14T07:53:28.420Z,28.23
2023-04-14T07:58:30.550Z,36.90
2023-04-14T08:03:33.028Z,25.20
2023-04-14T08:08:36.141Z,20.60
2023-04-14T08:13:38.273Z,27.20
2023-04-14T08:18:41.522Z,25.77
2023-04-14T08:23:43.838Z,16.80
2023-04-14T08:28:47.113Z,17.98
2023-04-14T08:33:49.239Z,21.25
2023-04-14T08:38:53.354Z,24.80
2023-04-14T08:43:55.754Z,23.77
2023-04-14T08:49:05.859Z,30.85
2023-04-14T08:54:10.435Z,20.45
2023-04-14T08:59:12.612Z,28.50
2023-04-14T09:04:15.424Z,28.10
2023-04-14T09:09:18.635Z,25.35
2023-04-14T09:14:21.772Z,40.92
2023-04-14T09:19:24.874Z,17.67
2023-04-14T09:24:34.165Z,40.83
2023-04-14T09:29:37.671Z,30.25
2023-04-14T09:34:56.537Z,42.10
2023-04-14T09:40:00.438Z,25.63
2023-04-14T09:45:05.194Z,39.70
2023-04-14T09:50:07.931Z,29.83
2023-04-14T09:55:14.347Z,26.80
2023-04-14T10:00:16.808Z,24.00
2023-04-14T10:05:31.076Z,37.03
2023-04-14T10:10:35.483Z,23.08
2023-04-14T10:15:37.843Z,32.47
2023-04-14T10:20:40.357Z,30.05
2023-04-14T10:25:42.867Z,23.38
2023-04-14T10:30:45.302Z,28.17
2023-04-14T10:35:53.710Z,30.20
2023-04-14T10:40:59.811Z,21.93
2023-04-14T10:46:02.723Z,25.75
2023-04-14T10:51:09.921Z,17.13
2023-04-14T10:56:12.872Z,21.58
2023-04-14T11:01:32.830Z,16.85
2023-04-14T11:11:49.267Z,23.27
2023-04-14T11:17:02.780Z,13.02
2023-04-14T11:22:06.926Z,11.85
2023-04-14T11:27:12.919Z,17.52
2023-04-14T11:32:15.140Z,14.20
2023-04-14T11:37:17.490Z,20.98
2023-04-14T11:42:19.741Z,20.85
2023-04-14T11:47:22.346Z,24.98
2023-04-14T11:52:24.998Z,20.60
2023-04-14T11:57:27.438Z,18.80
2023-04-14T12:02:30.473Z,10.27
2023-04-14T12:07:33.679Z,9.13
2023-04-14T12:12:40.350Z,12.15
2023-04-14T12:17:42.841Z,7.63
2023-04-14T12:22:45.824Z,11.05
2023-04-14T12:27:55.770Z,12.70
2023-04-14T12:32:59.242Z,10.02
2023-04-14T12:38:01.425Z,8.05
2023-04-14T12:43:03.936Z,14.35
2023-04-14T12:48:09.359Z,4.40
2023-04-14T12:53:29.383Z,4.82
2023-04-14T12:58:31.988Z,5.70
2023-04-14T13:03:41.419Z,16.88
2023-04-14T13:08:48.715Z,14.93
2023-04-14T13:13:54.536Z,9.13
2023-04-14T13:18:56.952Z,18.00
2023-04-14T13:23:59.133Z,13.48
2023-04-14T13:29:01.570Z,20.15
2023-04-14T13:34:04.398Z,20.63
2023-04-14T13:39:06.504Z,15.02
2023-04-14T13:44:09.149Z,19.63
2023-04-14T13:49:12.194Z,18.88
2023-04-14T13:54:14.463Z,18.98
2023-04-14T13:59:17.327Z,27.63
2023-04-14T14:04:19.656Z,29.35
2023-04-14T14:09:21.981Z,16.20
2023-04-14T14:14:25.817Z,31.27
2023-04-14T14:19:28.251Z,13.98
2023-04-14T14:24:30.494Z,12.20
2023-04-14T14:29:35.059Z,15.57
2023-04-14T14:34:38.987Z,10.98
2023-04-14T14:39:41.321Z,21.25
2023-04-14T14:44:43.456Z,27.85
2023-04-14T14:49:52.984Z,17.67
2023-04-14T14:55:03.576Z,17.60
2023-04-14T15:00:07.819Z,15.48
2023-04-14T15:05:10.029Z,18.33
2023-04-14T15:10:12.194Z,19.42
2023-04-14T15:15:19.062Z,21.52
2023-04-14T15:20:22.055Z,12.82
2023-04-14T15:25:24.334Z,25.83
2023-04-14T15:30:27.481Z,28.75
2023-04-14T15:35:29.675Z,8.90
2023-04-14T15:40:32.107Z,23.50
2023-04-14T15:45:34.354Z,20.08
2023-04-14T15:50:44.770Z,21.83
2023-04-14T15:55:50.193Z,12.35
2023-04-14T16:00:52.463Z,16.25
2023-04-14T16:06:06.812Z,16.92
2023-04-14T16:11:19.329Z,16.70
2023-04-14T16:16:21.947Z,22.23
2023-04-14T16:21:24.217Z,10.82
2023-04-14T16:26:26.353Z,13.23
2023-04-14T16:31:28.728Z,14.68
2023-04-14T16:36:31.058Z,11.88
2023-04-14T16:41:33.802Z,8.68
2023-04-14T16:46:36.006Z,16.02
2023-04-14T16:51:38.638Z,11.55
2023-04-14T16:56:41.011Z,6.20
2023-04-14T17:01:45.240Z,5.45
2023-04-14T17:06:48.083Z,7.90
2023-04-14T17:11:50.322Z,10.30
2023-04-14T17:16:52.798Z,9.15
2023-04-14T17:21:55.079Z,8.13
2023-04-14T17:26:57.499Z,7.93
2023-04-14T17:32:01.100Z,9.70
2023-04-14T17:37:04.974Z,7.72
2023-04-14T17:42:07.515Z,22.17
2023-04-14T17:47:15.718Z,11.82
2023-04-14T17:52:18.541Z,5.85
2023-04-14T17:57:23.001Z,8.60
2023-04-14T18:02:30.737Z,6.97
2023-04-14T18:07:33.307Z,10.43
2023-04-14T18:12:36.563Z,12.45
2023-04-14T18:17:38.755Z,8.45
2023-04-14T18:22:41.405Z,10.43
2023-04-14T18:32:51.425Z,18.38
2023-04-14T18:37:54.791Z,6.32
2023-04-14T18:43:02.127Z,4.55
2023-04-14T18:48:08.332Z,7.80
2023-04-14T18:53:11.583Z,6.00
2023-04-14T18:58:13.697Z,6.15
2023-04-14T19:03:17.056Z,6.53
2023-04-14T19:08:19.437Z,9.68
2023-04-14T19:13:22.289Z,6.85
2023-04-14T19:18:25.650Z,7.35
2023-04-14T19:23:28.298Z,2.97
2023-04-14T19:28:33.862Z,9.75
2023-04-14T19:33:36.089Z,8.18
2023-04-14T19:38:39.651Z,5.63
2023-04-14T19:43:42.053Z,6.47
2023-04-14T19:48:45.220Z,8.45
2023-04-14T19:53:48.204Z,8.45
2023-04-14T19:58:51.807Z,8.80
2023-04-14T20:04:05.601Z,7.10
2023-04-14T20:09:16.261Z,6.80
2023-04-14T20:14:18.715Z,5.85
2023-04-14T20:19:23.243Z,6.07
2023-04-14T20:24:25.766Z,8.70
2023-04-14T20:29:27.930Z,8.88
2023-04-14T20:34:30.133Z,8.98
2023-04-14T20:39:32.240Z,6.65
2023-04-14T20:44:34.327Z,8.52
2023-04-14T20:49:36.957Z,7.55
2023-04-14T20:54:39.414Z,2.42
2023-04-14T20:59:41.688Z,7.60
2023-04-14T21:04:43.760Z,2.88
2023-04-14T21:09:45.956Z,7.38
2023-04-14T21:15:42.438Z,8.18
2023-04-14T21:20:10.957Z,12.18
2023-04-14T21:25:13.154Z,7.07
2023-04-14T21:30:15.633Z,7.75
2023-04-14T21:35:17.822Z,4.95
2023-04-14T21:40:20.410Z,3.83
2023-04-14T21:45:22.808Z,16.27
2023-04-14T21:50:25.136Z,10.82
2023-04-14T21:55:27.542Z,4.53
2023-04-14T22:00:31.026Z,7.20
2023-04-14T22:05:33.457Z,5.72
2023-04-14T22:10:39.497Z,11.02
2023-04-14T22:15:46.791Z,6.60
2023-04-14T22:20:49.316Z,5.68
2023-04-14T22:25:51.629Z,6.18
2023-04-14T22:30:54.307Z,10.30
2023-04-14T22:36:05.625Z,8.13
2023-04-14T22:41:08.944Z,10.40
2023-04-14T22:46:31.123Z,10.15
2023-04-14T22:51:49.893Z,12.00
2023-04-14T22:56:52.297Z,8.57
2023-04-14T23:01:59.551Z,11.48
2023-04-14T23:07:02.173Z,9.40
2023-04-14T23:12:05.717Z,11.80
2023-04-14T23:17:07.798Z,13.68
2023-04-14T23:22:12.900Z,7.65
2023-04-14T23:27:19.404Z,7.40
2023-04-14T23:32:22.449Z,3.88
2023-04-14T23:37:29.063Z,9.07
2023-04-14T23:42:36.985Z,15.17
2023-04-14T23:47:42.321Z,5.15
2023-04-14T23:52:58.452Z,6.35
2023-04-14T23:58:04.662Z,10.90
